sensor_id;sensor_type;location;lat;lon;timestamp;temperature;humidity
26053;DHT22;13826;51.186;4.450;2023-03-21T00:01:44;11.90;87.40
26053;DHT22;13826;51.186;4.450;2023-03-21T00:04:10;11.90;81.20
26053;DHT22;13826;51.186;4.450;2023-03-21T00:06:36;11.70;86.80
26053;DHT22;13826;51.186;4.450;2023-03-21T00:09:02;11.60;90.80
26053;DHT22;13826;51.186;4.450;2023-03-21T00:11:28;11.70;90.40
26053;DHT22;13826;51.186;4.450;2023-03-21T00:13:53;11.60;89.40
26053;DHT22;13826;51.186;4.450;2023-03-21T00:16:22;11.70;88.10
26053;DHT22;13826;51.186;4.450;2023-03-21T00:18:48;11.60;89.80
26053;DHT22;13826;51.186;4.450;2023-03-21T00:21:17;11.60;89.40
26053;DHT22;13826;51.186;4.450;2023-03-21T00:23:43;11.60;83.40
26053;DHT22;13826;51.186;4.450;2023-03-21T00:26:09;11.60;81.70
26053;DHT22;13826;51.186;4.450;2023-03-21T00:28:35;11.60;80.10
26053;DHT22;13826;51.186;4.450;2023-03-21T00:31:01;11.70;80.80
26053;DHT22;13826;51.186;4.450;2023-03-21T00:33:27;11.60;81.10
26053;DHT22;13826;51.186;4.450;2023-03-21T00:35:53;11.60;83.40
26053;DHT22;13826;51.186;4.450;2023-03-21T00:38:19;11.60;85.30
26053;DHT22;13826;51.186;4.450;2023-03-21T00:40:45;11.60;86.90
26053;DHT22;13826;51.186;4.450;2023-03-21T00:43:11;11.60;83.60
26053;DHT22;13826;51.186;4.450;2023-03-21T00:45:38;11.70;81.40
26053;DHT22;13826;51.186;4.450;2023-03-21T00:48:04;11.80;77.20
26053;DHT22;13826;51.186;4.450;2023-03-21T00:50:30;11.90;69.70
26053;DHT22;13826;51.186;4.450;2023-03-21T00:52:58;11.90;68.80
26053;DHT22;13826;51.186;4.450;2023-03-21T00:55:24;11.80;69.10
26053;DHT22;13826;51.186;4.450;2023-03-21T00:57:50;11.90;62.20
26053;DHT22;13826;51.186;4.450;2023-03-21T01:00:16;12.00;53.40
26053;DHT22;13826;51.186;4.450;2023-03-21T01:02:42;12.00;51.90
26053;DHT22;13826;51.186;4.450;2023-03-21T01:05:25;12.00;51.10
26053;DHT22;13826;51.186;4.450;2023-03-21T01:08:10;12.00;49.30
26053;DHT22;13826;51.186;4.450;2023-03-21T01:10:37;12.10;45.00
26053;DHT22;13826;51.186;4.450;2023-03-21T01:13:02;12.10;44.80
26053;DHT22;13826;51.186;4.450;2023-03-21T01:15:28;12.20;39.80
26053;DHT22;13826;51.186;4.450;2023-03-21T01:17:54;12.20;33.20
26053;DHT22;13826;51.186;4.450;2023-03-21T01:20:19;12.20;25.10
26053;DHT22;13826;51.186;4.450;2023-03-21T01:22:45;12.10;24.70
26053;DHT22;13826;51.186;4.450;2023-03-21T01:25:10;12.20;24.40
26053;DHT22;13826;51.186;4.450;2023-03-21T01:27:36;12.20;22.30
26053;DHT22;13826;51.186;4.450;2023-03-21T01:30:02;12.20;22.20
26053;DHT22;13826;51.186;4.450;2023-03-21T01:32:27;12.00;29.70
26053;DHT22;13826;51.186;4.450;2023-03-21T01:34:53;11.90;36.50
26053;DHT22;13826;51.186;4.450;2023-03-21T01:37:18;11.80;42.40
26053;DHT22;13826;51.186;4.450;2023-03-21T01:39:44;11.90;40.10
26053;DHT22;13826;51.186;4.450;2023-03-21T01:42:13;12.00;32.40
26053;DHT22;13826;51.186;4.450;2023-03-21T01:44:58;12.00;28.40
26053;DHT22;13826;51.186;4.450;2023-03-21T01:47:24;12.00;28.30
26053;DHT22;13826;51.186;4.450;2023-03-21T01:49:50;11.90;34.70
26053;DHT22;13826;51.186;4.450;2023-03-21T01:52:19;11.90;36.40
26053;DHT22;13826;51.186;4.450;2023-03-21T01:54:45;11.80;37.60
26053;DHT22;13826;51.186;4.450;2023-03-21T01:57:14;11.80;40.60
26053;DHT22;13826;51.186;4.450;2023-03-21T02:02:08;11.90;34.00
26053;DHT22;13826;51.186;4.450;2023-03-21T02:04:35;11.80;35.70
26053;DHT22;13826;51.186;4.450;2023-03-21T02:09:29;11.90;37.50
26053;DHT22;13826;51.186;4.450;2023-03-21T02:11:56;11.90;29.20
26053;DHT22;13826;51.186;4.450;2023-03-21T02:14:22;11.90;30.80
26053;DHT22;13826;51.186;4.450;2023-03-21T02:16:53;11.90;29.10
26053;DHT22;13826;51.186;4.450;2023-03-21T02:29:37;12.00;14.70
26053;DHT22;13826;51.186;4.450;2023-03-21T02:32:31;12.00;13.30
26053;DHT22;13826;51.186;4.450;2023-03-21T02:43:14;12.00;5.30
26053;DHT22;13826;51.186;4.450;2023-03-21T02:48:08;11.90;7.10
26053;DHT22;13826;51.186;4.450;2023-03-21T02:50:37;11.80;13.50
26053;DHT22;13826;51.186;4.450;2023-03-21T02:53:06;11.80;19.90
26053;DHT22;13826;51.186;4.450;2023-03-21T02:55:33;11.80;18.00
26053;DHT22;13826;51.186;4.450;2023-03-21T02:57:59;11.90;7.90
26053;DHT22;13826;51.186;4.450;2023-03-21T03:00:26;12.00;1.00
26053;DHT22;13826;51.186;4.450;2023-03-21T03:02:53;11.90;1.00
26053;DHT22;13826;51.186;4.450;2023-03-21T03:05:23;12.00;1.00
26053;DHT22;13826;51.186;4.450;2023-03-21T03:15:41;11.90;1.00
26053;DHT22;13826;51.186;4.450;2023-03-21T03:18:11;11.90;1.00
26053;DHT22;13826;51.186;4.450;2023-03-21T03:25:31;12.00;1.00
26053;DHT22;13826;51.186;4.450;2023-03-21T03:28:00;12.00;1.00
26053;DHT22;13826;51.186;4.450;2023-03-21T03:30:27;12.10;1.00
26053;DHT22;13826;51.186;4.450;2023-03-21T03:32:54;12.10;1.00
26053;DHT22;13826;51.186;4.450;2023-03-21T03:35:21;12.10;1.00
26053;DHT22;13826;51.186;4.450;2023-03-21T03:37:48;12.10;1.00
26053;DHT22;13826;51.186;4.450;2023-03-21T03:40:21;12.10;1.00
26053;DHT22;13826;51.186;4.450;2023-03-21T03:42:48;12.10;1.00
26053;DHT22;13826;51.186;4.450;2023-03-21T03:45:15;12.10;1.00
26053;DHT22;13826;51.186;4.450;2023-03-21T03:47:58;12.10;1.00
26053;DHT22;13826;51.186;4.450;2023-03-21T03:50:26;12.10;1.00
26053;DHT22;13826;51.186;4.450;2023-03-21T03:52:54;12.20;1.00
26053;DHT22;13826;51.186;4.450;2023-03-21T03:55:21;12.10;1.00
26053;DHT22;13826;51.186;4.450;2023-03-21T03:57:47;12.00;1.00
26053;DHT22;13826;51.186;4.450;2023-03-21T04:00:14;12.10;1.00
26053;DHT22;13826;51.186;4.450;2023-03-21T04:02:40;12.10;1.00
26053;DHT22;13826;51.186;4.450;2023-03-21T04:05:06;12.10;1.00
26053;DHT22;13826;51.186;4.450;2023-03-21T04:07:31;12.10;1.00
26053;DHT22;13826;51.186;4.450;2023-03-21T04:09:57;12.10;1.00
26053;DHT22;13826;51.186;4.450;2023-03-21T04:12:23;12.10;1.00
26053;DHT22;13826;51.186;4.450;2023-03-21T04:14:49;12.10;1.00
26053;DHT22;13826;51.186;4.450;2023-03-21T04:17:15;12.20;1.00
26053;DHT22;13826;51.186;4.450;2023-03-21T04:19:41;12.20;1.00
26053;DHT22;13826;51.186;4.450;2023-03-21T04:22:07;12.30;1.00
26053;DHT22;13826;51.186;4.450;2023-03-21T04:24:33;12.20;1.00
26053;DHT22;13826;51.186;4.450;2023-03-21T04:26:59;12.20;1.00
26053;DHT22;13826;51.186;4.450;2023-03-21T04:29:25;12.20;1.00
26053;DHT22;13826;51.186;4.450;2023-03-21T04:31:54;12.20;1.00
26053;DHT22;13826;51.186;4.450;2023-03-21T04:34:20;12.10;1.00
26053;DHT22;13826;51.186;4.450;2023-03-21T04:36:48;12.00;1.00
26053;DHT22;13826;51.186;4.450;2023-03-21T04:39:15;12.20;1.00
26053;DHT22;13826;51.186;4.450;2023-03-21T04:41:41;12.00;1.00
26053;DHT22;13826;51.186;4.450;2023-03-21T04:44:07;12.10;1.00
26053;DHT22;13826;51.186;4.450;2023-03-21T04:46:33;12.10;1.00
26053;DHT22;13826;51.186;4.450;2023-03-21T04:49:00;12.00;1.00
26053;DHT22;13826;51.186;4.450;2023-03-21T04:51:25;12.10;1.00
26053;DHT22;13826;51.186;4.450;2023-03-21T04:53:51;12.10;1.00
26053;DHT22;13826;51.186;4.450;2023-03-21T04:56:17;12.10;1.00
26053;DHT22;13826;51.186;4.450;2023-03-21T04:58:43;12.10;1.00
26053;DHT22;13826;51.186;4.450;2023-03-21T05:01:08;12.00;1.00
26053;DHT22;13826;51.186;4.450;2023-03-21T05:03:34;12.00;1.00
26053;DHT22;13826;51.186;4.450;2023-03-21T05:06:05;12.00;1.00
26053;DHT22;13826;51.186;4.450;2023-03-21T05:08:33;12.00;1.00
26053;DHT22;13826;51.186;4.450;2023-03-21T05:10:58;12.00;1.00
26053;DHT22;13826;51.186;4.450;2023-03-21T05:13:24;12.00;1.00
26053;DHT22;13826;51.186;4.450;2023-03-21T05:15:50;12.00;1.00
26053;DHT22;13826;51.186;4.450;2023-03-21T05:18:15;12.00;1.00
26053;DHT22;13826;51.186;4.450;2023-03-21T05:20:49;12.10;1.00
26053;DHT22;13826;51.186;4.450;2023-03-21T05:23:17;12.20;1.00
26053;DHT22;13826;51.186;4.450;2023-03-21T05:25:43;12.10;1.00
26053;DHT22;13826;51.186;4.450;2023-03-21T05:28:08;12.10;1.00
26053;DHT22;13826;51.186;4.450;2023-03-21T05:30:34;12.10;1.00
26053;DHT22;13826;51.186;4.450;2023-03-21T05:33:00;12.00;1.00
26053;DHT22;13826;51.186;4.450;2023-03-21T05:35:25;12.10;1.00
26053;DHT22;13826;51.186;4.450;2023-03-21T05:37:51;12.20;1.00
26053;DHT22;13826;51.186;4.450;2023-03-21T05:40:17;12.20;1.00
26053;DHT22;13826;51.186;4.450;2023-03-21T05:42:43;12.20;1.00
26053;DHT22;13826;51.186;4.450;2023-03-21T05:45:10;12.10;1.00
26053;DHT22;13826;51.186;4.450;2023-03-21T05:47:35;12.00;1.00
26053;DHT22;13826;51.186;4.450;2023-03-21T05:50:01;11.90;1.00
26053;DHT22;13826;51.186;4.450;2023-03-21T05:52:26;11.90;1.00
26053;DHT22;13826;51.186;4.450;2023-03-21T05:54:53;11.90;1.00
26053;DHT22;13826;51.186;4.450;2023-03-21T05:57:19;11.90;1.00
26053;DHT22;13826;51.186;4.450;2023-03-21T05:59:45;11.90;2.60
26053;DHT22;13826;51.186;4.450;2023-03-21T06:02:10;11.90;7.60
26053;DHT22;13826;51.186;4.450;2023-03-21T06:04:36;11.90;4.40
26053;DHT22;13826;51.186;4.450;2023-03-21T06:07:02;11.90;11.50
26053;DHT22;13826;51.186;4.450;2023-03-21T06:09:27;11.90;14.90
26053;DHT22;13826;51.186;4.450;2023-03-21T06:11:54;11.70;26.40
26053;DHT22;13826;51.186;4.450;2023-03-21T06:14:20;11.70;40.30
26053;DHT22;13826;51.186;4.450;2023-03-21T06:16:45;11.70;41.90
26053;DHT22;13826;51.186;4.450;2023-03-21T06:19:11;11.80;42.50
26053;DHT22;13826;51.186;4.450;2023-03-21T06:21:37;11.80;47.80
26053;DHT22;13826;51.186;4.450;2023-03-21T06:24:02;11.70;50.60
26053;DHT22;13826;51.186;4.450;2023-03-21T06:26:28;11.70;58.50
26053;DHT22;13826;51.186;4.450;2023-03-21T06:28:54;11.80;59.90
26053;DHT22;13826;51.186;4.450;2023-03-21T06:31:20;12.00;47.80
26053;DHT22;13826;51.186;4.450;2023-03-21T06:33:49;12.10;38.70
26053;DHT22;13826;51.186;4.450;2023-03-21T06:36:16;12.10;36.70
26053;DHT22;13826;51.186;4.450;2023-03-21T06:38:42;12.20;36.50
26053;DHT22;13826;51.186;4.450;2023-03-21T06:41:07;12.10;42.60
26053;DHT22;13826;51.186;4.450;2023-03-21T06:43:33;12.00;50.50
26053;DHT22;13826;51.186;4.450;2023-03-21T06:45:59;11.90;59.50
26053;DHT22;13826;51.186;4.450;2023-03-21T06:48:25;12.00;52.70
26053;DHT22;13826;51.186;4.450;2023-03-21T06:50:51;12.10;45.50
26053;DHT22;13826;51.186;4.450;2023-03-21T06:53:17;12.10;37.10
26053;DHT22;13826;51.186;4.450;2023-03-21T06:55:50;12.10;36.70
26053;DHT22;13826;51.186;4.450;2023-03-21T06:58:16;12.10;32.00
26053;DHT22;13826;51.186;4.450;2023-03-21T07:00:42;12.10;24.20
26053;DHT22;13826;51.186;4.450;2023-03-21T07:03:09;12.10;25.30
26053;DHT22;13826;51.186;4.450;2023-03-21T07:05:35;12.10;26.50
26053;DHT22;13826;51.186;4.450;2023-03-21T07:08:01;12.00;27.50
26053;DHT22;13826;51.186;4.450;2023-03-21T07:10:26;12.00;26.50
26053;DHT22;13826;51.186;4.450;2023-03-21T07:12:52;12.10;25.10
26053;DHT22;13826;51.186;4.450;2023-03-21T07:15:17;12.10;23.60
26053;DHT22;13826;51.186;4.450;2023-03-21T07:17:43;12.20;18.30
26053;DHT22;13826;51.186;4.450;2023-03-21T07:20:09;12.20;9.80
26053;DHT22;13826;51.186;4.450;2023-03-21T07:22:37;12.20;8.20
26053;DHT22;13826;51.186;4.450;2023-03-21T07:25:03;12.20;6.60
26053;DHT22;13826;51.186;4.450;2023-03-21T07:27:29;12.20;6.70
26053;DHT22;13826;51.186;4.450;2023-03-21T07:29:58;12.10;19.50
26053;DHT22;13826;51.186;4.450;2023-03-21T07:32:23;12.10;19.40
26053;DHT22;13826;51.186;4.450;2023-03-21T07:34:49;12.20;19.40
26053;DHT22;13826;51.186;4.450;2023-03-21T07:37:14;12.20;22.40
26053;DHT22;13826;51.186;4.450;2023-03-21T07:39:40;12.30;12.70
26053;DHT22;13826;51.186;4.450;2023-03-21T07:42:07;12.40;11.50
26053;DHT22;13826;51.186;4.450;2023-03-21T07:44:33;12.40;13.50
26053;DHT22;13826;51.186;4.450;2023-03-21T07:46:58;12.40;8.50
26053;DHT22;13826;51.186;4.450;2023-03-21T07:49:24;12.30;11.00
26053;DHT22;13826;51.186;4.450;2023-03-21T07:51:50;12.40;11.20
26053;DHT22;13826;51.186;4.450;2023-03-21T07:54:16;12.40;14.70
26053;DHT22;13826;51.186;4.450;2023-03-21T07:56:45;12.40;5.70
26053;DHT22;13826;51.186;4.450;2023-03-21T07:59:11;12.50;6.30
26053;DHT22;13826;51.186;4.450;2023-03-21T08:01:36;12.50;1.00
26053;DHT22;13826;51.186;4.450;2023-03-21T08:04:02;12.50;1.00
26053;DHT22;13826;51.186;4.450;2023-03-21T08:06:27;12.60;1.00
26053;DHT22;13826;51.186;4.450;2023-03-21T08:08:57;12.40;1.00
26053;DHT22;13826;51.186;4.450;2023-03-21T08:11:22;12.50;1.00
26053;DHT22;13826;51.186;4.450;2023-03-21T08:13:48;12.50;1.00
26053;DHT22;13826;51.186;4.450;2023-03-21T08:16:16;12.50;1.00
26053;DHT22;13826;51.186;4.450;2023-03-21T08:18:41;12.60;1.00
26053;DHT22;13826;51.186;4.450;2023-03-21T08:21:07;12.60;1.00
26053;DHT22;13826;51.186;4.450;2023-03-21T08:23:32;12.60;1.00
26053;DHT22;13826;51.186;4.450;2023-03-21T08:25:59;12.70;1.00
26053;DHT22;13826;51.186;4.450;2023-03-21T08:28:26;12.70;1.00
26053;DHT22;13826;51.186;4.450;2023-03-21T08:30:51;12.80;1.00
26053;DHT22;13826;51.186;4.450;2023-03-21T08:33:17;12.80;1.00
26053;DHT22;13826;51.186;4.450;2023-03-21T08:35:43;12.90;1.00
26053;DHT22;13826;51.186;4.450;2023-03-21T08:38:09;12.80;1.00
26053;DHT22;13826;51.186;4.450;2023-03-21T08:40:34;13.00;1.00
26053;DHT22;13826;51.186;4.450;2023-03-21T08:43:00;13.10;1.00
26053;DHT22;13826;51.186;4.450;2023-03-21T08:45:26;13.20;1.00
26053;DHT22;13826;51.186;4.450;2023-03-21T08:47:52;13.30;1.00
26053;DHT22;13826;51.186;4.450;2023-03-21T08:50:19;13.40;1.00
26053;DHT22;13826;51.186;4.450;2023-03-21T08:52:45;13.60;1.00
26053;DHT22;13826;51.186;4.450;2023-03-21T08:55:11;13.90;1.00
26053;DHT22;13826;51.186;4.450;2023-03-21T08:57:37;14.20;1.00
26053;DHT22;13826;51.186;4.450;2023-03-21T09:00:03;14.60;99.90
26053;DHT22;13826;51.186;4.450;2023-03-21T09:02:37;15.00;1.00
26053;DHT22;13826;51.186;4.450;2023-03-21T09:05:04;15.70;1.00
26053;DHT22;13826;51.186;4.450;2023-03-21T09:07:32;16.10;1.00
26053;DHT22;13826;51.186;4.450;2023-03-21T09:10:03;16.60;1.00
26053;DHT22;13826;51.186;4.450;2023-03-21T09:12:29;16.40;99.90
26053;DHT22;13826;51.186;4.450;2023-03-21T09:14:54;16.20;1.00
26053;DHT22;13826;51.186;4.450;2023-03-21T09:17:20;16.10;99.90
26053;DHT22;13826;51.186;4.450;2023-03-21T09:19:46;15.90;1.00
26053;DHT22;13826;51.186;4.450;2023-03-21T09:22:11;15.60;58.80
26053;DHT22;13826;51.186;4.450;2023-03-21T09:24:42;15.40;1.00
26053;DHT22;13826;51.186;4.450;2023-03-21T09:27:08;15.40;1.00
26053;DHT22;13826;51.186;4.450;2023-03-21T09:29:34;15.20;99.90
26053;DHT22;13826;51.186;4.450;2023-03-21T09:32:00;15.10;1.00
26053;DHT22;13826;51.186;4.450;2023-03-21T09:34:26;15.10;99.90
26053;DHT22;13826;51.186;4.450;2023-03-21T09:36:52;15.00;99.90
26053;DHT22;13826;51.186;4.450;2023-03-21T09:39:20;15.00;99.90
26053;DHT22;13826;51.186;4.450;2023-03-21T09:44:20;14.60;99.90
26053;DHT22;13826;51.186;4.450;2023-03-21T09:49:24;14.40;99.90
26053;DHT22;13826;51.186;4.450;2023-03-21T09:51:56;14.50;1.00
26053;DHT22;13826;51.186;4.450;2023-03-21T09:54:27;14.70;1.00
26053;DHT22;13826;51.186;4.450;2023-03-21T09:56:55;14.80;99.90
26053;DHT22;13826;51.186;4.450;2023-03-21T09:59:27;15.00;85.10
26053;DHT22;13826;51.186;4.450;2023-03-21T10:01:53;15.40;99.90
26053;DHT22;13826;51.186;4.450;2023-03-21T10:04:22;15.30;99.90
26053;DHT22;13826;51.186;4.450;2023-03-21T10:07:08;15.20;1.00
26053;DHT22;13826;51.186;4.450;2023-03-21T10:09:40;15.10;1.00
26053;DHT22;13826;51.186;4.450;2023-03-21T10:12:15;15.00;99.90
26053;DHT22;13826;51.186;4.450;2023-03-21T10:14:49;15.00;1.00
26053;DHT22;13826;51.186;4.450;2023-03-21T10:19:45;14.90;1.00
26053;DHT22;13826;51.186;4.450;2023-03-21T10:22:10;14.90;1.00
26053;DHT22;13826;51.186;4.450;2023-03-21T10:24:36;15.10;99.90
26053;DHT22;13826;51.186;4.450;2023-03-21T10:27:02;15.20;99.90
26053;DHT22;13826;51.186;4.450;2023-03-21T10:29:34;15.30;99.90
26053;DHT22;13826;51.186;4.450;2023-03-21T10:32:11;15.30;1.00
26053;DHT22;13826;51.186;4.450;2023-03-21T10:34:54;15.30;1.00
26053;DHT22;13826;51.186;4.450;2023-03-21T10:37:21;15.50;1.00
26053;DHT22;13826;51.186;4.450;2023-03-21T10:39:48;15.70;99.90
26053;DHT22;13826;51.186;4.450;2023-03-21T10:42:18;16.10;1.00
26053;DHT22;13826;51.186;4.450;2023-03-21T10:44:46;16.40;29.00
26053;DHT22;13826;51.186;4.450;2023-03-21T10:47:14;16.30;1.60
26053;DHT22;13826;51.186;4.450;2023-03-21T10:49:43;15.80;99.90
26053;DHT22;13826;51.186;4.450;2023-03-21T10:52:10;15.70;99.90
26053;DHT22;13826;51.186;4.450;2023-03-21T10:54:38;15.80;99.90
26053;DHT22;13826;51.186;4.450;2023-03-21T10:57:05;15.90;99.90
26053;DHT22;13826;51.186;4.450;2023-03-21T10:59:34;16.00;34.00
26053;DHT22;13826;51.186;4.450;2023-03-21T11:02:01;15.70;41.10
26053;DHT22;13826;51.186;4.450;2023-03-21T11:04:28;15.80;99.90
26053;DHT22;13826;51.186;4.450;2023-03-21T11:06:57;15.90;99.90
26053;DHT22;13826;51.186;4.450;2023-03-21T11:09:41;16.20;99.90
26053;DHT22;13826;51.186;4.450;2023-03-21T11:12:09;16.10;1.00
26053;DHT22;13826;51.186;4.450;2023-03-21T11:14:42;15.80;99.90
26053;DHT22;13826;51.186;4.450;2023-03-21T11:19:53;15.30;19.00
26053;DHT22;13826;51.186;4.450;2023-03-21T11:22:22;15.20;99.90
26053;DHT22;13826;51.186;4.450;2023-03-21T11:24:52;15.10;18.30
26053;DHT22;13826;51.186;4.450;2023-03-21T11:27:17;15.40;99.90
26053;DHT22;13826;51.186;4.450;2023-03-21T11:29:49;15.70;99.90
26053;DHT22;13826;51.186;4.450;2023-03-21T11:32:25;15.70;99.90
26053;DHT22;13826;51.186;4.450;2023-03-21T11:37:43;15.20;99.90
26053;DHT22;13826;51.186;4.450;2023-03-21T11:42:41;15.50;99.90
26053;DHT22;13826;51.186;4.450;2023-03-21T11:45:12;15.60;1.00
26053;DHT22;13826;51.186;4.450;2023-03-21T11:47:38;15.70;1.00
26053;DHT22;13826;51.186;4.450;2023-03-21T11:58:17;19.00;1.00
26053;DHT22;13826;51.186;4.450;2023-03-21T12:06:00;19.90;1.00
26053;DHT22;13826;51.186;4.450;2023-03-21T12:16:24;20.30;1.00
26053;DHT22;13826;51.186;4.450;2023-03-21T12:21:53;18.80;1.00
26053;DHT22;13826;51.186;4.450;2023-03-21T12:39:34;16.90;99.90
26053;DHT22;13826;51.186;4.450;2023-03-21T12:44:32;16.70;99.90
26053;DHT22;13826;51.186;4.450;2023-03-21T12:47:05;16.70;99.90
26053;DHT22;13826;51.186;4.450;2023-03-21T12:49:33;16.60;99.90
26053;DHT22;13826;51.186;4.450;2023-03-21T12:52:01;16.60;99.90
26053;DHT22;13826;51.186;4.450;2023-03-21T12:54:30;16.90;99.90
26053;DHT22;13826;51.186;4.450;2023-03-21T12:57:04;17.20;99.90
26053;DHT22;13826;51.186;4.450;2023-03-21T13:04:40;18.00;54.00
26053;DHT22;13826;51.186;4.450;2023-03-21T13:07:07;18.00;53.70
26053;DHT22;13826;51.186;4.450;2023-03-21T13:09:36;18.30;58.40
26053;DHT22;13826;51.186;4.450;2023-03-21T13:12:04;18.20;28.30
26053;DHT22;13826;51.186;4.450;2023-03-21T13:14:33;18.00;15.30
26053;DHT22;13826;51.186;4.450;2023-03-21T13:17:05;17.90;99.90
26053;DHT22;13826;51.186;4.450;2023-03-21T13:19:37;17.90;8.70
26053;DHT22;13826;51.186;4.450;2023-03-21T13:22:06;17.80;50.00
26053;DHT22;13826;51.186;4.450;2023-03-21T13:24:38;17.60;50.10
26053;DHT22;13826;51.186;4.450;2023-03-21T13:27:17;17.40;99.90
26053;DHT22;13826;51.186;4.450;2023-03-21T13:29:46;17.10;99.90
26053;DHT22;13826;51.186;4.450;2023-03-21T13:32:33;17.00;99.90
26053;DHT22;13826;51.186;4.450;2023-03-21T13:35:18;16.70;99.90
26053;DHT22;13826;51.186;4.450;2023-03-21T13:37:49;16.50;1.00
26053;DHT22;13826;51.186;4.450;2023-03-21T13:40:20;16.50;1.00
26053;DHT22;13826;51.186;4.450;2023-03-21T13:42:49;16.40;99.90
26053;DHT22;13826;51.186;4.450;2023-03-21T13:48:24;16.30;1.00
26053;DHT22;13826;51.186;4.450;2023-03-21T13:53:18;16.40;1.00
26053;DHT22;13826;51.186;4.450;2023-03-21T13:55:45;16.30;1.00
26053;DHT22;13826;51.186;4.450;2023-03-21T13:58:31;16.40;1.00
26053;DHT22;13826;51.186;4.450;2023-03-21T14:03:34;16.20;93.60
26053;DHT22;13826;51.186;4.450;2023-03-21T14:06:00;15.90;99.90
26053;DHT22;13826;51.186;4.450;2023-03-21T14:08:26;15.80;1.00
26053;DHT22;13826;51.186;4.450;2023-03-21T14:10:54;15.70;99.90
26053;DHT22;13826;51.186;4.450;2023-03-21T14:13:23;15.90;1.00
26053;DHT22;13826;51.186;4.450;2023-03-21T14:15:53;16.10;99.90
26053;DHT22;13826;51.186;4.450;2023-03-21T14:18:19;16.00;99.90
26053;DHT22;13826;51.186;4.450;2023-03-21T14:20:50;15.60;99.90
26053;DHT22;13826;51.186;4.450;2023-03-21T14:23:16;15.70;1.00
26053;DHT22;13826;51.186;4.450;2023-03-21T14:25:42;15.50;1.00
26053;DHT22;13826;51.186;4.450;2023-03-21T14:30:40;15.70;99.90
26053;DHT22;13826;51.186;4.450;2023-03-21T14:33:26;15.50;99.90
26053;DHT22;13826;51.186;4.450;2023-03-21T14:35:53;15.20;1.00
26053;DHT22;13826;51.186;4.450;2023-03-21T14:38:25;15.00;99.90
26053;DHT22;13826;51.186;4.450;2023-03-21T14:40:53;14.90;99.90
26053;DHT22;13826;51.186;4.450;2023-03-21T14:43:19;14.50;99.90
26053;DHT22;13826;51.186;4.450;2023-03-21T14:45:46;14.40;1.00
26053;DHT22;13826;51.186;4.450;2023-03-21T14:48:13;14.50;1.00
26053;DHT22;13826;51.186;4.450;2023-03-21T14:53:21;14.90;1.00
26053;DHT22;13826;51.186;4.450;2023-03-21T14:56:05;14.90;1.00
26053;DHT22;13826;51.186;4.450;2023-03-21T14:58:31;14.80;1.00
26053;DHT22;13826;51.186;4.450;2023-03-21T15:01:01;14.90;1.00
26053;DHT22;13826;51.186;4.450;2023-03-21T15:03:28;15.00;1.00
26053;DHT22;13826;51.186;4.450;2023-03-21T15:05:54;15.20;1.00
26053;DHT22;13826;51.186;4.450;2023-03-21T15:08:22;15.20;1.00
26053;DHT22;13826;51.186;4.450;2023-03-21T15:10:58;15.30;1.00
26053;DHT22;13826;51.186;4.450;2023-03-21T15:13:25;15.20;1.00
26053;DHT22;13826;51.186;4.450;2023-03-21T15:15:51;15.00;1.00
26053;DHT22;13826;51.186;4.450;2023-03-21T15:18:22;14.90;1.00
26053;DHT22;13826;51.186;4.450;2023-03-21T15:20:49;14.80;1.00
26053;DHT22;13826;51.186;4.450;2023-03-21T15:23:20;14.60;1.00
26053;DHT22;13826;51.186;4.450;2023-03-21T15:25:49;14.40;1.00
26053;DHT22;13826;51.186;4.450;2023-03-21T15:28:15;14.40;1.00
26053;DHT22;13826;51.186;4.450;2023-03-21T15:30:46;14.50;1.00
26053;DHT22;13826;51.186;4.450;2023-03-21T15:33:12;14.50;1.00
26053;DHT22;13826;51.186;4.450;2023-03-21T15:35:45;14.60;1.00
26053;DHT22;13826;51.186;4.450;2023-03-21T15:40:48;14.60;1.00
26053;DHT22;13826;51.186;4.450;2023-03-21T15:43:15;14.80;1.00
26053;DHT22;13826;51.186;4.450;2023-03-21T15:45:47;14.60;1.00
26053;DHT22;13826;51.186;4.450;2023-03-21T15:48:14;14.60;1.00
26053;DHT22;13826;51.186;4.450;2023-03-21T15:50:40;14.70;1.00
26053;DHT22;13826;51.186;4.450;2023-03-21T15:53:14;14.70;1.00
26053;DHT22;13826;51.186;4.450;2023-03-21T15:55:42;14.60;1.00
26053;DHT22;13826;51.186;4.450;2023-03-21T15:58:19;14.50;1.00
26053;DHT22;13826;51.186;4.450;2023-03-21T16:00:49;14.40;1.00
26053;DHT22;13826;51.186;4.450;2023-03-21T16:03:25;14.50;1.00
26053;DHT22;13826;51.186;4.450;2023-03-21T16:06:01;14.50;1.00
26053;DHT22;13826;51.186;4.450;2023-03-21T16:08:27;14.60;1.00
26053;DHT22;13826;51.186;4.450;2023-03-21T16:11:04;14.60;1.00
26053;DHT22;13826;51.186;4.450;2023-03-21T16:13:30;14.70;1.00
26053;DHT22;13826;51.186;4.450;2023-03-21T16:15:55;14.70;1.00
26053;DHT22;13826;51.186;4.450;2023-03-21T16:18:21;14.60;1.00
26053;DHT22;13826;51.186;4.450;2023-03-21T16:20:46;14.60;1.00
26053;DHT22;13826;51.186;4.450;2023-03-21T16:23:14;14.60;1.00
26053;DHT22;13826;51.186;4.450;2023-03-21T16:25:40;14.60;1.00
26053;DHT22;13826;51.186;4.450;2023-03-21T16:28:11;14.70;1.00
26053;DHT22;13826;51.186;4.450;2023-03-21T16:30:38;14.70;1.00
26053;DHT22;13826;51.186;4.450;2023-03-21T16:33:04;14.70;1.00
26053;DHT22;13826;51.186;4.450;2023-03-21T16:35:29;14.70;1.00
26053;DHT22;13826;51.186;4.450;2023-03-21T16:37:55;14.80;1.00
26053;DHT22;13826;51.186;4.450;2023-03-21T16:40:22;14.90;1.00
26053;DHT22;13826;51.186;4.450;2023-03-21T16:42:51;14.90;1.00
26053;DHT22;13826;51.186;4.450;2023-03-21T16:45:17;14.80;1.00
26053;DHT22;13826;51.186;4.450;2023-03-21T16:47:43;14.70;1.00
26053;DHT22;13826;51.186;4.450;2023-03-21T16:52:54;14.50;1.00
26053;DHT22;13826;51.186;4.450;2023-03-21T16:55:20;14.40;1.00
26053;DHT22;13826;51.186;4.450;2023-03-21T16:57:46;14.40;1.00
26053;DHT22;13826;51.186;4.450;2023-03-21T17:00:14;14.30;1.00
26053;DHT22;13826;51.186;4.450;2023-03-21T17:02:43;14.40;1.00
26053;DHT22;13826;51.186;4.450;2023-03-21T17:05:09;14.40;1.00
26053;DHT22;13826;51.186;4.450;2023-03-21T17:07:36;14.40;1.00
26053;DHT22;13826;51.186;4.450;2023-03-21T17:10:02;14.30;1.00
26053;DHT22;13826;51.186;4.450;2023-03-21T17:12:28;14.30;1.00
26053;DHT22;13826;51.186;4.450;2023-03-21T17:14:53;14.30;1.00
26053;DHT22;13826;51.186;4.450;2023-03-21T17:17:19;14.30;1.00
26053;DHT22;13826;51.186;4.450;2023-03-21T17:19:45;14.40;1.00
26053;DHT22;13826;51.186;4.450;2023-03-21T17:22:11;14.50;1.00
26053;DHT22;13826;51.186;4.450;2023-03-21T17:24:37;14.60;1.00
26053;DHT22;13826;51.186;4.450;2023-03-21T17:27:03;14.60;1.00
26053;DHT22;13826;51.186;4.450;2023-03-21T17:29:29;14.50;1.00
26053;DHT22;13826;51.186;4.450;2023-03-21T17:31:55;14.40;1.00
26053;DHT22;13826;51.186;4.450;2023-03-21T17:34:20;14.40;1.00
26053;DHT22;13826;51.186;4.450;2023-03-21T17:36:46;14.60;1.00
26053;DHT22;13826;51.186;4.450;2023-03-21T17:39:14;14.50;1.00
26053;DHT22;13826;51.186;4.450;2023-03-21T17:41:41;14.40;1.00
26053;DHT22;13826;51.186;4.450;2023-03-21T17:44:06;14.40;1.00